Terminal Aerodrome Forecast
Issued by NWS Albany, NY

Home | Current Version | Previous Version | Text Only | Print | Product List | Glossary On
Versions: 1 2 3 4 5 6 7 8 9 10 11 12 13 14 15 16 17 18 19 20 21 22 23 24 25 26 27 28 29 30 31 32 33 34 35 36 37 38 39 40
000
FTUS41 KALY 030536
TAFGFL
TAF
KGFL 030536Z 0306/0406 03004KT P6SM OVC020
      TEMPO 0308/0311 2SM BR OVC009
     FM031200 03005KT P6SM OVC020
     FM031800 04004KT P6SM SCT025 OVC035
     FM040200 VRB02KT P6SM OVC025=

USA.gov is the U.S. government's official web portal to all federal, state and local government web resources and services.